createdAt,value
2023-03-01T00:01:50.098Z,98433.13
2023-03-01T00:04:18.484Z,98436.50
2023-03-01T00:06:47.141Z,98433.06
2023-03-01T00:09:17.316Z,98432.25
2023-03-01T00:11:47.454Z,98439.28
2023-03-01T00:14:17.330Z,98427.06
2023-03-01T00:16:47.383Z,98436.63
2023-03-01T00:19:17.054Z,98425.06
2023-03-01T00:21:45.684Z,98424.09
2023-03-01T00:24:14.143Z,98424.94
2023-03-01T00:26:43.864Z,98436.25
2023-03-01T00:29:12.060Z,98425.94
2023-03-01T00:31:40.218Z,98432.81
2023-03-01T00:34:09.020Z,98432.81
2023-03-01T00:36:39.684Z,98422.19
2023-03-01T00:39:12.255Z,98416.97
2023-03-01T00:41:41.173Z,98414.28
2023-03-01T00:44:12.236Z,98424.75
2023-03-01T00:46:40.810Z,98426.66
2023-03-01T00:49:08.981Z,98425.06
2023-03-01T00:51:37.282Z,98416.34
2023-03-01T00:54:05.738Z,98411.00
2023-03-01T00:56:34.313Z,98406.56
2023-03-01T00:59:02.682Z,98408.50
2023-03-01T01:01:33.289Z,98395.41
2023-03-01T01:04:03.441Z,98397.88
2023-03-01T01:06:34.768Z,98402.25
2023-03-01T01:09:03.510Z,98412.63
2023-03-01T01:11:32.901Z,98404.81
2023-03-01T01:14:01.599Z,98402.28
2023-03-01T01:16:32.810Z,98401.41
2023-03-01T01:19:01.214Z,98393.47
2023-03-01T01:21:30.180Z,98385.59
2023-03-01T01:23:58.991Z,98383.03
2023-03-01T01:26:30.154Z,98388.34
2023-03-01T01:28:58.946Z,98386.50
2023-03-01T01:31:27.667Z,98379.50
2023-03-01T01:33:57.946Z,98377.78
2023-03-01T01:36:26.417Z,98383.06
2023-03-01T01:38:54.556Z,98377.75
2023-03-01T01:41:23.443Z,98368.19
2023-03-01T01:44:12.109Z,98363.78
2023-03-01T01:46:42.963Z,98360.19
2023-03-01T01:49:21.702Z,98354.34
2023-03-01T01:51:53.535Z,98358.00
2023-03-01T01:54:25.602Z,98358.97
2023-03-01T01:56:57.987Z,98356.22
2023-03-01T01:59:27.966Z,98355.22
2023-03-01T02:01:56.711Z,98363.06
2023-03-01T02:04:26.595Z,98359.50
2023-03-01T02:07:00.887Z,98356.84
2023-03-01T02:09:29.515Z,98351.44
2023-03-01T02:11:57.979Z,98352.56
2023-03-01T02:14:26.081Z,98348.09
2023-03-01T02:16:54.559Z,98351.63
2023-03-01T02:19:34.696Z,98340.28
2023-03-01T02:22:13.018Z,98339.28
2023-03-01T02:24:52.479Z,98342.84
2023-03-01T02:27:27.766Z,98338.69
2023-03-01T02:29:57.850Z,98338.69
2023-03-01T02:32:27.019Z,98340.34
2023-03-01T02:34:57.834Z,98337.91
2023-03-01T02:37:27.977Z,98334.53
2023-03-01T02:40:01.878Z,98336.38
2023-03-01T02:42:37.996Z,98333.75
2023-03-01T02:45:08.934Z,98336.31
2023-03-01T02:47:37.047Z,98331.19
2023-03-01T02:50:22.085Z,98339.16
2023-03-01T02:52:59.636Z,98325.22
2023-03-01T02:55:28.559Z,98317.41
2023-03-01T02:57:58.582Z,98324.25
2023-03-01T03:00:34.303Z,98318.25
2023-03-01T03:03:02.485Z,98330.34
2023-03-01T03:05:32.983Z,98310.50
2023-03-01T03:08:02.545Z,98326.16
2023-03-01T03:10:38.270Z,98319.72
2023-03-01T03:13:09.712Z,98325.06
2023-03-01T03:15:40.643Z,98313.88
2023-03-01T03:18:11.148Z,98323.34
2023-03-01T03:20:41.719Z,98333.88
2023-03-01T03:23:09.832Z,98323.47
2023-03-01T03:25:39.188Z,98319.03
2023-03-01T03:28:10.639Z,98319.09
2023-03-01T03:30:41.916Z,98321.72
2023-03-01T03:33:13.154Z,98326.06
2023-03-01T03:35:44.531Z,98327.00
2023-03-01T03:38:17.977Z,98317.56
2023-03-01T03:40:48.343Z,98329.59
2023-03-01T03:43:18.356Z,98328.84
2023-03-01T03:45:48.614Z,98319.19
2023-03-01T03:48:17.264Z,98332.28
2023-03-01T03:50:50.869Z,98339.25
2023-03-01T03:53:19.467Z,98335.66
2023-03-01T03:55:50.302Z,98328.66
2023-03-01T03:58:20.841Z,98333.13
2023-03-01T04:00:53.123Z,98336.66
2023-03-01T04:03:23.043Z,98334.78
2023-03-01T04:05:53.477Z,98330.47
2023-03-01T04:08:22.353Z,98327.69
2023-03-01T04:10:51.859Z,98324.94
2023-03-01T04:13:21.724Z,98327.56
2023-03-01T04:15:52.755Z,98326.84
2023-03-01T04:18:22.346Z,98319.09
2023-03-01T04:20:53.085Z,98333.09
2023-03-01T04:23:22.194Z,98330.53
2023-03-01T04:25:54.922Z,98333.94
2023-03-01T04:28:25.455Z,98328.78
2023-03-01T04:30:55.604Z,98326.19
2023-03-01T04:33:24.478Z,98331.28
2023-03-01T04:35:53.244Z,98329.47
2023-03-01T04:38:22.473Z,98327.69
2023-03-01T04:40:50.758Z,98333.56
2023-03-01T04:43:18.804Z,98320.81
2023-03-01T04:45:47.013Z,98324.97
2023-03-01T04:48:16.487Z,98326.66
2023-03-01T04:50:44.593Z,98333.00
2023-03-01T04:53:12.761Z,98331.41
2023-03-01T04:55:40.849Z,98326.22
2023-03-01T04:58:08.902Z,98336.75
2023-03-01T05:00:37.113Z,98326.34
2023-03-01T05:03:05.404Z,98322.81
2023-03-01T05:05:37.478Z,98315.63
2023-03-01T05:08:07.403Z,98320.69
2023-03-01T05:10:37.286Z,98317.84
2023-03-01T05:13:07.697Z,98320.63
2023-03-01T05:15:37.563Z,98319.88
2023-03-01T05:18:08.239Z,98305.19
2023-03-01T05:20:37.679Z,98315.44
2023-03-01T05:23:07.260Z,98315.50
2023-03-01T05:25:41.177Z,98316.28
2023-03-01T05:28:13.464Z,98314.72
2023-03-01T05:30:42.070Z,98319.13
2023-03-01T05:33:14.481Z,98338.38
2023-03-01T05:35:45.737Z,98321.88
2023-03-01T05:38:15.272Z,98331.34
2023-03-01T05:40:44.608Z,98335.78
2023-03-01T05:43:14.040Z,98331.38
2023-03-01T05:45:43.016Z,98329.66
2023-03-01T05:48:12.466Z,98331.38
2023-03-01T05:50:42.659Z,98333.31
2023-03-01T05:53:15.881Z,98324.69
2023-03-01T05:55:45.268Z,98339.31
2023-03-01T05:58:16.115Z,98338.28
2023-03-01T06:00:45.308Z,98339.94
2023-03-01T06:03:14.789Z,98341.59
2023-03-01T06:05:43.237Z,98345.84
2023-03-01T06:08:14.184Z,98342.53
2023-03-01T06:10:42.873Z,98349.50
2023-03-01T06:13:11.093Z,98347.72
2023-03-01T06:15:39.270Z,98341.53
2023-03-01T06:18:07.414Z,98342.38
2023-03-01T06:20:35.518Z,98341.41
2023-03-01T06:23:03.635Z,98346.72
2023-03-01T06:25:33.376Z,98342.31
2023-03-01T06:28:01.488Z,98337.94
2023-03-01T06:30:29.566Z,98346.66
2023-03-01T06:33:01.939Z,98350.22
2023-03-01T06:35:31.733Z,98346.63
2023-03-01T06:38:01.051Z,98355.38
2023-03-01T06:40:29.725Z,98369.41
2023-03-01T06:43:00.026Z,98367.63
2023-03-01T06:45:28.115Z,98363.06
2023-03-01T06:48:04.207Z,98369.41
2023-03-01T06:50:32.578Z,98365.81
2023-03-01T06:53:00.750Z,98361.16
2023-03-01T06:55:29.774Z,98369.66
2023-03-01T06:58:00.171Z,98366.53
2023-03-01T07:00:29.167Z,98372.13
2023-03-01T07:03:00.145Z,98375.56
2023-03-01T07:05:28.329Z,98371.41
2023-03-01T07:07:57.316Z,98383.69
2023-03-01T07:10:25.841Z,98372.78
2023-03-01T07:12:57.493Z,98369.69
2023-03-01T07:15:27.603Z,98374.94
2023-03-01T07:17:55.881Z,98381.00
2023-03-01T07:20:26.428Z,98382.81
2023-03-01T07:22:54.990Z,98371.66
2023-03-01T07:25:23.593Z,98383.19
2023-03-01T07:27:53.024Z,98385.69
2023-03-01T07:30:22.034Z,98390.13
2023-03-01T07:32:53.142Z,98390.00
2023-03-01T07:35:22.902Z,98393.84
2023-03-01T07:37:51.111Z,98393.25
2023-03-01T07:40:19.681Z,98391.34
2023-03-01T07:42:47.859Z,98382.81
2023-03-01T07:45:15.972Z,98393.50
2023-03-01T07:47:44.051Z,98382.03
2023-03-01T07:50:14.580Z,98387.75
2023-03-01T07:52:43.843Z,98386.41
2023-03-01T07:55:12.276Z,98392.34
2023-03-01T07:57:40.621Z,98394.44
2023-03-01T08:00:10.505Z,98394.34
2023-03-01T08:02:43.091Z,98399.75
2023-03-01T08:05:12.072Z,98388.50
2023-03-01T08:07:41.850Z,98390.84
2023-03-01T08:10:11.834Z,98388.09
2023-03-01T08:12:39.918Z,98389.56
2023-03-01T08:15:09.195Z,98384.31
2023-03-01T08:17:37.359Z,98376.25
2023-03-01T08:20:08.028Z,98383.72
2023-03-01T08:22:36.138Z,98380.59
2023-03-01T08:25:06.236Z,98395.09
2023-03-01T08:27:34.305Z,98394.56
2023-03-01T08:30:02.555Z,98388.72
2023-03-01T08:32:30.682Z,98386.84
2023-03-01T08:34:59.129Z,98383.69
2023-03-01T08:37:27.660Z,98380.00
2023-03-01T08:39:56.539Z,98382.94
2023-03-01T08:42:26.192Z,98375.78
2023-03-01T08:44:54.361Z,98375.63
2023-03-01T08:47:22.508Z,98371.72
2023-03-01T08:49:52.074Z,98365.06
2023-03-01T08:52:20.243Z,98364.88
2023-03-01T08:54:49.908Z,98377.16
2023-03-01T08:57:18.453Z,98370.53
2023-03-01T08:59:47.967Z,98363.78
2023-03-01T09:02:18.323Z,98357.72
2023-03-01T09:04:46.698Z,98352.44
2023-03-01T09:07:14.826Z,98358.47
2023-03-01T09:09:42.916Z,98353.25
2023-03-01T09:12:11.176Z,98348.66
2023-03-01T09:14:39.883Z,98346.66
2023-03-01T09:17:09.433Z,98351.50
2023-03-01T09:19:37.548Z,98328.16
2023-03-01T09:22:06.022Z,98325.00
2023-03-01T09:24:34.195Z,98343.53
2023-03-01T09:27:02.544Z,98329.31
2023-03-01T09:29:30.681Z,98338.53
2023-03-01T09:31:59.560Z,98322.34
2023-03-01T09:34:29.266Z,98327.22
2023-03-01T09:36:59.498Z,98325.47
2023-03-01T09:39:27.678Z,98320.47
2023-03-01T09:42:03.206Z,98315.59
2023-03-01T09:44:38.040Z,98322.91
2023-03-01T09:47:07.335Z,98316.31
2023-03-01T09:49:42.403Z,98311.78
2023-03-01T09:52:23.702Z,98316.69
2023-03-01T09:54:59.392Z,98309.28
2023-03-01T09:57:35.176Z,98317.97
2023-03-01T10:00:22.345Z,98309.53
2023-03-01T10:02:54.820Z,98296.81
2023-03-01T10:05:36.849Z,98302.28
2023-03-01T10:08:27.108Z,98295.09
2023-03-01T10:10:55.852Z,98298.66
2023-03-01T10:13:28.203Z,98295.69
2023-03-01T10:15:58.863Z,98287.56
2023-03-01T10:18:29.796Z,98301.91
2023-03-01T10:21:01.628Z,98298.56
2023-03-01T10:23:35.364Z,98301.78
2023-03-01T10:26:14.640Z,98301.84
2023-03-01T10:28:51.838Z,98317.03
2023-03-01T10:31:24.347Z,98314.53
2023-03-01T10:33:56.031Z,98319.47
2023-03-01T10:36:26.079Z,98329.81
2023-03-01T10:38:57.989Z,98339.13
2023-03-01T10:41:27.907Z,98343.81
2023-03-01T10:43:59.138Z,98347.81
2023-03-01T10:46:29.163Z,98348.63
2023-03-01T10:49:17.158Z,98349.94
2023-03-01T10:51:48.859Z,98355.88
2023-03-01T10:54:23.236Z,98353.25
2023-03-01T10:56:54.683Z,98347.38
2023-03-01T10:59:28.642Z,98334.44
2023-03-01T11:02:25.045Z,98338.44
2023-03-01T11:05:02.543Z,98334.75
2023-03-01T11:07:32.092Z,98338.22
2023-03-01T11:10:00.244Z,98321.97
2023-03-01T11:12:30.767Z,98320.38
2023-03-01T11:14:59.773Z,98318.91
2023-03-01T11:17:34.677Z,98317.38
2023-03-01T11:20:18.657Z,98316.28
2023-03-01T11:22:52.269Z,98313.00
2023-03-01T11:25:25.674Z,98303.41
2023-03-01T11:27:55.422Z,98294.69
2023-03-01T11:30:28.159Z,98302.66
2023-03-01T11:33:07.786Z,98293.47
2023-03-01T11:35:39.551Z,98292.06
2023-03-01T11:38:20.762Z,98282.25
2023-03-01T11:40:56.024Z,98285.78
2023-03-01T11:43:31.808Z,98284.25
2023-03-01T11:46:32.140Z,98270.59
2023-03-01T11:49:14.602Z,98286.56
2023-03-01T11:51:49.993Z,98283.22
2023-03-01T11:54:38.494Z,98282.44
2023-03-01T11:57:17.265Z,98284.84
2023-03-01T12:00:02.270Z,98278.66
2023-03-01T12:02:47.344Z,98271.69
2023-03-01T12:05:26.926Z,98269.09
2023-03-01T12:08:01.797Z,98254.53
2023-03-01T12:10:35.682Z,98251.19
2023-03-01T12:13:25.877Z,98238.91
2023-03-01T12:16:11.640Z,98224.09
2023-03-01T12:19:09.708Z,98218.19
2023-03-01T12:21:51.758Z,98208.13
2023-03-01T12:24:48.258Z,98201.38
2023-03-01T12:27:36.690Z,98212.66
2023-03-01T12:30:20.948Z,98209.78
2023-03-01T12:33:01.895Z,98192.03
2023-03-01T12:36:13.031Z,98188.47
2023-03-01T12:38:44.229Z,98183.47
2023-03-01T12:41:44.882Z,98185.63
2023-03-01T12:44:26.274Z,98177.94
2023-03-01T12:47:08.194Z,98176.69
2023-03-01T12:49:42.573Z,98165.50
2023-03-01T12:52:16.632Z,98167.69
2023-03-01T12:54:44.816Z,98165.06
2023-03-01T12:57:19.993Z,98149.06
2023-03-01T13:00:02.344Z,98155.06
2023-03-01T13:02:38.303Z,98141.53
2023-03-01T13:05:26.431Z,98139.28
2023-03-01T13:08:00.934Z,98130.16
2023-03-01T13:10:35.397Z,98122.88
2023-03-01T13:13:14.261Z,98111.06
2023-03-01T13:15:43.832Z,98107.81
2023-03-01T13:18:31.195Z,98101.25
2023-03-01T13:21:01.562Z,98115.22
2023-03-01T13:23:33.836Z,98095.88
2023-03-01T13:26:15.054Z,98093.84
2023-03-01T13:29:01.986Z,98098.94
2023-03-01T13:32:01.778Z,98099.63
2023-03-01T13:34:52.102Z,98094.03
2023-03-01T13:37:30.357Z,98090.94
2023-03-01T13:40:07.289Z,98095.28
2023-03-01T13:42:42.011Z,98100.84
2023-03-01T13:45:21.407Z,98095.88
2023-03-01T13:47:55.882Z,98100.16
2023-03-01T13:50:27.070Z,98104.81
2023-03-01T13:53:00.383Z,98109.03
2023-03-01T13:55:42.863Z,98099.19
2023-03-01T13:58:21.055Z,98096.91
2023-03-01T14:00:49.380Z,98093.31
2023-03-01T14:03:21.836Z,98096.66
2023-03-01T14:06:13.198Z,98084.94
2023-03-01T14:08:42.696Z,98076.66
2023-03-01T14:11:56.779Z,98079.72
2023-03-01T14:14:49.533Z,98084.53
2023-03-01T14:17:30.591Z,98072.59
2023-03-01T14:20:05.387Z,98067.84
2023-03-01T14:22:36.770Z,98062.50
2023-03-01T14:25:17.192Z,98061.06
2023-03-01T14:27:46.390Z,98049.75
2023-03-01T14:30:20.068Z,98051.34
2023-03-01T14:32:56.457Z,98058.66
2023-03-01T14:35:27.864Z,98060.63
2023-03-01T14:37:56.042Z,98055.38
2023-03-01T14:40:27.479Z,98058.91
2023-03-01T14:42:57.515Z,98060.50
2023-03-01T14:45:27.691Z,98062.59
2023-03-01T14:47:57.166Z,98057.41
2023-03-01T14:50:29.344Z,98055.25
2023-03-01T14:53:01.051Z,98049.41
2023-03-01T14:55:32.542Z,98056.25
2023-03-01T14:58:03.407Z,98053.38
2023-03-01T15:00:33.802Z,98050.16
2023-03-01T15:03:10.896Z,98046.50
2023-03-01T15:05:42.389Z,98054.34
2023-03-01T15:08:20.346Z,98053.38
2023-03-01T15:10:59.581Z,98055.19
2023-03-01T15:13:31.485Z,98052.72
2023-03-01T15:16:07.629Z,98052.72
2023-03-01T15:18:37.154Z,98043.97
2023-03-01T15:21:12.081Z,98046.59
2023-03-01T15:23:42.296Z,98037.88
2023-03-01T15:26:25.370Z,98042.47
2023-03-01T15:28:59.118Z,98035.75
2023-03-01T15:31:28.973Z,98037.63
2023-03-01T15:34:11.341Z,98042.00
2023-03-01T15:36:44.714Z,98030.50
2023-03-01T15:39:44.472Z,98043.81
2023-03-01T15:42:14.500Z,98039.19
2023-03-01T15:44:47.103Z,98037.56
2023-03-01T15:47:28.774Z,98037.78
2023-03-01T15:49:57.873Z,98038.38
2023-03-01T15:52:31.035Z,98031.56
2023-03-01T15:55:01.996Z,98033.59
2023-03-01T15:57:30.202Z,98033.53
2023-03-01T15:59:58.357Z,98032.84
2023-03-01T16:02:26.745Z,98035.53
2023-03-01T16:04:57.666Z,98045.13
2023-03-01T16:07:29.046Z,98034.66
2023-03-01T16:09:57.640Z,98034.75
2023-03-01T16:12:26.720Z,98040.28
2023-03-01T16:14:55.104Z,98040.41
2023-03-01T16:17:23.989Z,98035.28
2023-03-01T16:19:52.520Z,98034.50
2023-03-01T16:22:26.391Z,98043.09
2023-03-01T16:24:57.305Z,98038.13
2023-03-01T16:27:25.455Z,98038.22
2023-03-01T16:29:54.094Z,98039.22
2023-03-01T16:32:22.603Z,98032.34
2023-03-01T16:34:50.991Z,98030.47
2023-03-01T16:37:20.543Z,98033.03
2023-03-01T16:39:50.028Z,98036.72
2023-03-01T16:42:19.802Z,98033.41
2023-03-01T16:44:47.989Z,98025.44
2023-03-01T16:47:16.490Z,98030.00
2023-03-01T16:49:44.963Z,98027.53
2023-03-01T16:52:14.402Z,98036.41
2023-03-01T16:54:42.734Z,98029.38
2023-03-01T16:57:10.879Z,98037.41
2023-03-01T16:59:40.515Z,98030.56
2023-03-01T17:02:13.934Z,98038.56
2023-03-01T17:04:45.801Z,98037.66
2023-03-01T17:07:15.409Z,98043.09
2023-03-01T17:09:43.578Z,98044.78
2023-03-01T17:12:14.627Z,98038.78
2023-03-01T17:14:45.368Z,98044.00
2023-03-01T17:17:14.893Z,98044.50
2023-03-01T17:19:44.837Z,98048.84
2023-03-01T17:22:15.342Z,98052.09
2023-03-01T17:24:45.320Z,98061.81
2023-03-01T17:27:15.281Z,98053.94
2023-03-01T17:29:47.319Z,98053.19
2023-03-01T17:32:15.721Z,98043.09
2023-03-01T17:34:44.874Z,98056.50
2023-03-01T17:37:15.444Z,98066.59
2023-03-01T17:39:44.210Z,98060.22
2023-03-01T17:42:13.798Z,98060.44
2023-03-01T17:44:43.925Z,98059.75
2023-03-01T17:47:14.669Z,98037.00
2023-03-01T17:49:44.688Z,98050.03
2023-03-01T17:52:13.624Z,98060.63
2023-03-01T17:54:42.356Z,98066.84
2023-03-01T17:57:11.236Z,98065.94
2023-03-01T17:59:40.326Z,98063.44
2023-03-01T18:02:09.406Z,98063.47
2023-03-01T18:04:39.508Z,98061.16
2023-03-01T18:07:08.324Z,98053.56
2023-03-01T18:09:37.028Z,98061.44
2023-03-01T18:12:06.487Z,98056.00
2023-03-01T18:14:35.564Z,98063.84
2023-03-01T18:17:06.643Z,98063.91
2023-03-01T18:19:35.841Z,98072.00
2023-03-01T18:22:06.553Z,98067.50
2023-03-01T18:24:38.628Z,98068.31
2023-03-01T18:27:08.610Z,98075.38
2023-03-01T18:29:42.470Z,98069.16
2023-03-01T18:32:12.872Z,98071.75
2023-03-01T18:34:42.417Z,98072.72
2023-03-01T18:37:13.631Z,98070.06
2023-03-01T18:39:44.176Z,98071.84
2023-03-01T18:42:16.918Z,98077.97
2023-03-01T18:44:46.753Z,98076.25
2023-03-01T18:47:17.215Z,98078.28
2023-03-01T18:49:47.615Z,98070.34
2023-03-01T18:52:19.387Z,98068.69
2023-03-01T18:54:48.371Z,98065.22
2023-03-01T18:57:17.695Z,98064.28
2023-03-01T18:59:47.393Z,98058.31
2023-03-01T19:02:16.917Z,98066.06
2023-03-01T19:04:46.344Z,98072.25
2023-03-01T19:07:15.903Z,98068.81
2023-03-01T19:09:48.855Z,98070.63
2023-03-01T19:12:18.245Z,98067.25
2023-03-01T19:14:52.465Z,98075.88
2023-03-01T19:17:25.302Z,98076.94
2023-03-01T19:19:55.340Z,98073.34
2023-03-01T19:22:25.988Z,98064.78
2023-03-01T19:25:06.359Z,98064.00
2023-03-01T19:27:36.022Z,98060.38
2023-03-01T19:30:15.557Z,98068.31
2023-03-01T19:32:45.459Z,98064.09
2023-03-01T19:35:15.012Z,98066.66
2023-03-01T19:37:44.713Z,98063.25
2023-03-01T19:40:15.977Z,98075.31
2023-03-01T19:42:49.896Z,98073.84
2023-03-01T19:45:25.258Z,98087.00
2023-03-01T19:48:03.105Z,98085.22
2023-03-01T19:50:32.767Z,98079.97
2023-03-01T19:53:02.054Z,98088.97
2023-03-01T19:55:32.869Z,98085.69
2023-03-01T19:58:03.043Z,98098.44
2023-03-01T20:00:32.362Z,98098.59
2023-03-01T20:03:06.818Z,98098.72
2023-03-01T20:05:37.924Z,98107.31
2023-03-01T20:08:10.112Z,98103.94
2023-03-01T20:10:40.917Z,98104.16
2023-03-01T20:13:10.485Z,98104.16
2023-03-01T20:15:44.346Z,98102.41
2023-03-01T20:18:15.522Z,98099.06
2023-03-01T20:20:50.859Z,98106.84
2023-03-01T20:23:24.509Z,98104.34
2023-03-01T20:26:04.106Z,98107.72
2023-03-01T20:28:36.271Z,98113.69
2023-03-01T20:31:11.395Z,98111.06
2023-03-01T20:33:42.262Z,98115.38
2023-03-01T20:36:12.523Z,98112.69
2023-03-01T20:38:42.112Z,98111.88
2023-03-01T20:41:14.904Z,98109.19
2023-03-01T20:43:45.148Z,98108.34
2023-03-01T20:46:18.884Z,98117.72
2023-03-01T20:48:47.900Z,98116.84
2023-03-01T20:51:17.130Z,98119.34
2023-03-01T20:53:46.336Z,98120.19
2023-03-01T20:56:18.630Z,98128.72
2023-03-01T20:59:04.988Z,98122.81
2023-03-01T21:01:34.035Z,98130.44
2023-03-01T21:04:03.952Z,98123.38
2023-03-01T21:06:33.460Z,98116.50
2023-03-01T21:09:02.332Z,98121.75
2023-03-01T21:11:33.595Z,98121.69
2023-03-01T21:14:05.816Z,98119.00
2023-03-01T21:16:35.905Z,98120.63
2023-03-01T21:19:05.625Z,98107.66
2023-03-01T21:21:34.067Z,98107.53
2023-03-01T21:24:02.785Z,98110.19
2023-03-01T21:26:33.721Z,98097.84
2023-03-01T21:29:02.901Z,98096.84
2023-03-01T21:31:34.302Z,98091.91
2023-03-01T21:34:05.588Z,98087.00
2023-03-01T21:36:35.228Z,98084.34
2023-03-01T21:39:05.713Z,98083.31
2023-03-01T21:41:38.012Z,98080.84
2023-03-01T21:44:07.960Z,98076.28
2023-03-01T21:46:38.200Z,98071.59
2023-03-01T21:49:08.825Z,98072.59
2023-03-01T21:51:37.726Z,98067.41
2023-03-01T21:54:06.870Z,98060.47
2023-03-01T21:56:39.293Z,98053.53
2023-03-01T21:59:09.082Z,98058.50
2023-03-01T22:01:37.261Z,98057.56
2023-03-01T22:04:05.829Z,98059.13
2023-03-01T22:06:38.238Z,98053.00
2023-03-01T22:09:09.195Z,98053.94
2023-03-01T22:11:40.713Z,98051.38
2023-03-01T22:14:09.960Z,98053.81
2023-03-01T22:16:40.388Z,98051.44
2023-03-01T22:19:09.283Z,98036.63
2023-03-01T22:21:39.717Z,98040.78
2023-03-01T22:24:08.661Z,98041.34
2023-03-01T22:26:40.941Z,98037.72
2023-03-01T22:29:11.525Z,98032.31
2023-03-01T22:31:40.552Z,98039.19
2023-03-01T22:34:09.303Z,98039.22
2023-03-01T22:36:39.319Z,98041.72
2023-03-01T22:39:07.760Z,98039.97
2023-03-01T22:41:41.472Z,98033.16
2023-03-01T22:44:11.605Z,98028.56
2023-03-01T22:46:39.929Z,98026.13
2023-03-01T22:49:08.076Z,98032.22
2023-03-01T22:51:38.643Z,98017.31
2023-03-01T22:54:07.171Z,98018.91
2023-03-01T22:56:37.720Z,98010.41
2023-03-01T22:59:08.814Z,98008.81
2023-03-01T23:01:39.391Z,98020.22
2023-03-01T23:04:07.821Z,98008.81
2023-03-01T23:06:50.795Z,97998.94
2023-03-01T23:09:20.419Z,98006.06
2023-03-01T23:11:48.560Z,98007.75
2023-03-01T23:14:16.837Z,98002.47
2023-03-01T23:16:46.659Z,97998.19
2023-03-01T23:19:16.515Z,98008.03
2023-03-01T23:21:48.606Z,98001.13
2023-03-01T23:24:18.091Z,98011.66
2023-03-01T23:26:50.476Z,98003.75
2023-03-01T23:29:18.646Z,98004.69
2023-03-01T23:31:48.618Z,98010.69
2023-03-01T23:34:16.747Z,98007.28
2023-03-01T23:36:46.025Z,98005.53
2023-03-01T23:39:15.135Z,98015.78
2023-03-01T23:41:43.315Z,98008.81
2023-03-01T23:44:16.152Z,98008.81
2023-03-01T23:46:44.843Z,98005.16
2023-03-01T23:49:16.296Z,97999.19
2023-03-01T23:51:45.668Z,98008.88
2023-03-01T23:54:15.248Z,97992.22
2023-03-01T23:56:44.790Z,98001.47
2023-03-01T23:59:15.458Z,97999.50
